Time;durP1;ratioP1;P1;durP2;ratioP2;P2;SDS_P1;SDS_P2;PMS_P1;PMS_P2;Temp;Humidity;BMP_temperature;BMP_pressure;BME280_temperature;BME280_humidity;BME280_pressure;Samples;Min_cycle;Max_cycle;Signal;HPM_P1;HPM_P2
2023/11/21 00:01:14;;;;;;;1.33;1.23;;;;;;;;;;6283461;22;20176;-79
2023/11/21 00:03:42;;;;;;;2.13;1.40;;;;;;;;;;6283570;22;20221;-78
2023/11/21 00:06:10;;;;;;;1.10;1.10;;;;;;;;;;6283807;22;20231;-79
2023/11/21 00:08:39;;;;;;;1.63;1.38;;;;;;;;;;6283603;22;20708;-78
2023/11/21 00:11:06;;;;;;;1.98;1.48;;;;;;;;;;6283711;22;20259;-79
2023/11/21 00:13:34;;;;;;;3.92;1.50;;;;;;;;;;6282985;22;20693;-79
2023/11/21 00:16:02;;;;;;;0.98;0.98;;;;;;;;;;6283571;22;20172;-79
2023/11/21 00:18:30;;;;;;;1.50;1.40;;;;;;;;;;6283912;22;20192;-79
2023/11/21 00:20:58;;;;;;;0.90;0.90;;;;;;;;;;6284001;22;20176;-79
2023/11/21 00:23:26;;;;;;;1.08;0.98;;;;;;;;;;6283173;22;20207;-79
2023/11/21 00:25:55;;;;;;;1.30;1.10;;;;;;;;;;6283143;22;20203;-79
2023/11/21 00:28:22;;;;;;;2.30;1.40;;;;;;;;;;6282928;22;20196;-79
2023/11/21 00:30:49;;;;;;;2.72;1.92;;;;;;;;;;6282709;22;20200;-77
2023/11/21 00:33:17;;;;;;;1.40;1.30;;;;;;;;;;6283331;22;20251;-78
2023/11/21 00:35:44;;;;;;;0.90;0.90;;;;;;;;;;6282967;22;20254;-79
2023/11/21 00:38:12;;;;;;;3.00;1.70;;;;;;;;;;6282853;22;20582;-78
2023/11/21 00:40:39;;;;;;;3.47;1.50;;;;;;;;;;6282979;22;20203;-79
2023/11/21 00:43:08;;;;;;;2.78;1.50;;;;;;;;;;6282341;22;20212;-79
2023/11/21 00:45:36;;;;;;;2.15;1.65;;;;;;;;;;6283303;22;20252;-79
2023/11/21 00:48:04;;;;;;;1.73;1.63;;;;;;;;;;6283163;22;20269;-79
2023/11/21 00:50:32;;;;;;;1.50;1.40;;;;;;;;;;6283510;22;20176;-79
2023/11/21 00:52:59;;;;;;;1.60;1.20;;;;;;;;;;6282818;22;20228;-79
2023/11/21 00:55:28;;;;;;;1.95;1.48;;;;;;;;;;6283137;22;20207;-77
2023/11/21 00:57:55;;;;;;;4.68;2.13;;;;;;;;;;6282879;22;20534;-79
2023/11/21 01:00:24;;;;;;;1.63;1.50;;;;;;;;;;6281725;22;20200;-79
2023/11/21 01:02:51;;;;;;;1.52;1.42;;;;;;;;;;6283456;22;20207;-79
2023/11/21 01:05:19;;;;;;;1.55;1.40;;;;;;;;;;6282892;22;20199;-79
2023/11/21 01:07:47;;;;;;;2.13;1.52;;;;;;;;;;6282875;22;20664;-79
2023/11/21 01:10:16;;;;;;;2.35;1.50;;;;;;;;;;6282628;22;20552;-80
2023/11/21 01:12:43;;;;;;;2.03;1.60;;;;;;;;;;6282973;22;20180;-79
2023/11/21 01:15:12;;;;;;;2.42;1.25;;;;;;;;;;6282427;22;20260;-78
2023/11/21 01:17:40;;;;;;;1.35;1.25;;;;;;;;;;6282613;22;20192;-78
2023/11/21 01:20:12;;;;;;;2.25;1.80;;;;;;;;;;6282107;22;20474;-79
2023/11/21 01:22:40;;;;;;;1.58;1.33;;;;;;;;;;6282360;22;20184;-79
2023/11/21 01:25:08;;;;;;;1.50;1.20;;;;;;;;;;6282027;22;20184;-78
2023/11/21 01:27:35;;;;;;;2.53;1.13;;;;;;;;;;6282446;22;20235;-79
2023/11/21 01:30:03;;;;;;;1.45;1.00;;;;;;;;;;6283003;22;20192;-80
2023/11/21 01:32:30;;;;;;;0.93;0.93;;;;;;;;;;6283111;22;20621;-79
2023/11/21 01:35:00;;;;;;;0.70;0.70;;;;;;;;;;6282069;22;20237;-78
2023/11/21 01:37:28;;;;;;;1.48;1.35;;;;;;;;;;6283134;22;20203;-79
2023/11/21 01:39:56;;;;;;;0.80;0.80;;;;;;;;;;6282075;22;20173;-80
2023/11/21 01:42:23;;;;;;;1.20;1.10;;;;;;;;;;6281883;22;20676;-79
2023/11/21 01:44:51;;;;;;;0.70;0.70;;;;;;;;;;6282219;22;20247;-80
2023/11/21 01:47:18;;;;;;;1.30;1.20;;;;;;;;;;6282060;22;20918;-79
2023/11/21 01:49:47;;;;;;;2.60;1.33;;;;;;;;;;6281429;22;20274;-79
2023/11/21 01:52:16;;;;;;;1.50;1.25;;;;;;;;;;6282020;22;20733;-79
2023/11/21 01:54:43;;;;;;;3.05;1.40;;;;;;;;;;6282503;22;20215;-79
2023/11/21 01:57:11;;;;;;;4.53;2.17;;;;;;;;;;6282142;22;20290;-80
2023/11/21 01:59:39;;;;;;;3.53;1.70;;;;;;;;;;6281569;22;20255;-79
2023/11/21 02:02:07;;;;;;;1.55;1.40;;;;;;;;;;6281756;22;20176;-78
2023/11/21 02:04:36;;;;;;;1.10;1.05;;;;;;;;;;6282178;22;20196;-79
2023/11/21 02:07:05;;;;;;;1.98;1.67;;;;;;;;;;6282096;22;20636;-80
2023/11/21 02:09:34;;;;;;;4.18;1.30;;;;;;;;;;6281532;22;20267;-79
2023/11/21 02:12:02;;;;;;;2.20;1.40;;;;;;;;;;6285652;22;20235;-80
2023/11/21 02:14:31;;;;;;;3.05;1.33;;;;;;;;;;6284436;22;20176;-79
2023/11/21 02:17:00;;;;;;;1.27;1.17;;;;;;;;;;6286025;22;20176;-79
2023/11/21 02:19:29;;;;;;;4.15;2.10;;;;;;;;;;6284860;22;20172;-80
2023/11/21 02:22:00;;;;;;;1.85;1.65;;;;;;;;;;6285460;22;20172;-80
2023/11/21 02:24:29;;;;;;;4.22;1.60;;;;;;;;;;6286801;22;20216;-79
2023/11/21 02:26:57;;;;;;;2.30;2.15;;;;;;;;;;6286530;22;20251;-80
2023/11/21 02:29:27;;;;;;;3.70;1.50;;;;;;;;;;6286767;22;20234;-79
2023/11/21 02:31:56;;;;;;;2.05;1.75;;;;;;;;;;6286544;22;20214;-80
2023/11/21 02:34:24;;;;;;;1.75;1.52;;;;;;;;;;6286764;22;20204;-80
2023/11/21 02:36:52;;;;;;;1.60;1.50;;;;;;;;;;6286204;22;20176;-78
2023/11/21 02:39:21;;;;;;;1.45;1.20;;;;;;;;;;6284681;22;20176;-79
2023/11/21 02:41:51;;;;;;;1.40;1.30;;;;;;;;;;6285438;22;20694;-79
2023/11/21 02:44:18;;;;;;;1.00;1.00;;;;;;;;;;6285646;22;20173;-79
2023/11/21 02:46:46;;;;;;;1.20;1.10;;;;;;;;;;6284978;22;20547;-79
2023/11/21 02:49:14;;;;;;;1.50;1.40;;;;;;;;;;6285454;22;20275;-79
2023/11/21 02:51:41;;;;;;;1.40;1.30;;;;;;;;;;6285668;22;20206;-78
2023/11/21 02:54:10;;;;;;;1.10;1.10;;;;;;;;;;6285066;22;20208;-78
2023/11/21 02:56:39;;;;;;;1.85;1.75;;;;;;;;;;6285331;22;20255;-78
2023/11/21 02:59:08;;;;;;;1.73;1.63;;;;;;;;;;6285621;22;20703;-79
2023/11/21 03:01:36;;;;;;;1.50;1.40;;;;;;;;;;6285339;22;20183;-79
2023/11/21 03:04:03;;;;;;;1.60;1.50;;;;;;;;;;6285140;22;20176;-79
2023/11/21 03:06:31;;;;;;;1.45;1.35;;;;;;;;;;6284769;22;20259;-79
2023/11/21 03:08:58;;;;;;;1.10;1.10;;;;;;;;;;6284694;22;20602;-79
2023/11/21 03:11:26;;;;;;;1.65;1.55;;;;;;;;;;6284114;22;20206;-79
2023/11/21 03:13:53;;;;;;;1.00;1.00;;;;;;;;;;6284647;22;20196;-79
2023/11/21 03:16:22;;;;;;;2.55;1.33;;;;;;;;;;6284129;22;20200;-79
2023/11/21 03:18:49;;;;;;;1.45;1.40;;;;;;;;;;6284705;22;20271;-79
2023/11/21 03:21:17;;;;;;;1.48;1.38;;;;;;;;;;6284812;22;20178;-79
2023/11/21 03:23:45;;;;;;;1.58;1.48;;;;;;;;;;6283165;22;20246;-79
2023/11/21 03:26:14;;;;;;;2.15;2.05;;;;;;;;;;6283400;22;20196;-78
2023/11/21 03:28:41;;;;;;;1.83;1.65;;;;;;;;;;6284216;22;20271;-79
2023/11/21 03:31:09;;;;;;;4.65;1.60;;;;;;;;;;6283213;22;20593;-79
2023/11/21 03:33:38;;;;;;;3.25;1.80;;;;;;;;;;6283556;22;20176;-79
2023/11/21 03:36:07;;;;;;;1.60;1.50;;;;;;;;;;6283320;22;20256;-79
2023/11/21 03:38:35;;;;;;;2.10;1.60;;;;;;;;;;6283917;22;20192;-79
2023/11/21 03:41:02;;;;;;;1.70;1.60;;;;;;;;;;6283118;22;20199;-79
2023/11/21 03:43:30;;;;;;;1.95;1.85;;;;;;;;;;6283245;22;20172;-80
2023/11/21 03:45:57;;;;;;;2.80;2.30;;;;;;;;;;6283261;22;20585;-78
2023/11/21 03:48:24;;;;;;;2.97;2.72;;;;;;;;;;6283554;22;20196;-79
2023/11/21 03:50:53;;;;;;;2.47;2.08;;;;;;;;;;6283076;22;20227;-78
2023/11/21 03:53:21;;;;;;;3.13;2.13;;;;;;;;;;6283464;22;20208;-78
2023/11/21 03:55:49;;;;;;;2.22;2.03;;;;;;;;;;6283347;22;20211;-79
2023/11/21 03:58:16;;;;;;;5.65;1.92;;;;;;;;;;6283259;22;20267;-77
2023/11/21 04:00:44;;;;;;;3.90;2.33;;;;;;;;;;6282802;22;20255;-79
2023/11/21 04:03:11;;;;;;;3.00;2.55;;;;;;;;;;6283575;22;20207;-78
2023/11/21 04:05:39;;;;;;;3.38;2.28;;;;;;;;;;6283877;22;20203;-79
2023/11/21 04:08:07;;;;;;;2.00;1.80;;;;;;;;;;6283413;22;20196;-78
2023/11/21 04:10:35;;;;;;;4.35;2.88;;;;;;;;;;6282115;22;20202;-77
2023/11/21 04:13:02;;;;;;;3.58;2.22;;;;;;;;;;6283409;22;20248;-79
2023/11/21 04:15:30;;;;;;;4.28;2.67;;;;;;;;;;6282314;22;20200;-78
2023/11/21 04:17:57;;;;;;;3.60;2.78;;;;;;;;;;6282346;22;20243;-79
2023/11/21 04:20:25;;;;;;;3.55;2.88;;;;;;;;;;6283068;22;20168;-79
2023/11/21 04:22:52;;;;;;;4.13;3.13;;;;;;;;;;6281599;22;20215;-79
2023/11/21 04:25:23;;;;;;;3.63;2.47;;;;;;;;;;6282185;22;20251;-79
2023/11/21 04:27:50;;;;;;;3.25;2.83;;;;;;;;;;6282863;22;20196;-79
2023/11/21 04:30:18;;;;;;;3.55;3.20;;;;;;;;;;6282821;22;20271;-78
2023/11/21 04:32:45;;;;;;;8.30;3.00;;;;;;;;;;6283152;22;20252;-77
2023/11/21 04:35:13;;;;;;;3.28;2.85;;;;;;;;;;6282762;22;20177;-79
2023/11/21 04:37:40;;;;;;;3.80;3.00;;;;;;;;;;6282180;22;20228;-79
2023/11/21 04:40:10;;;;;;;4.82;3.03;;;;;;;;;;6282296;22;20180;-78
2023/11/21 04:42:38;;;;;;;3.30;3.00;;;;;;;;;;6283391;22;20579;-78
2023/11/21 04:45:11;;;;;;;3.65;3.08;;;;;;;;;;6282932;22;20207;-77
2023/11/21 04:47:38;;;;;;;5.43;3.13;;;;;;;;;;6283072;22;20653;-78
2023/11/21 04:50:07;;;;;;;4.18;3.30;;;;;;;;;;6282293;22;20197;-78
2023/11/21 04:52:34;;;;;;;9.15;4.13;;;;;;;;;;6282617;22;20255;-79
2023/11/21 04:55:03;;;;;;;5.70;3.45;;;;;;;;;;6283172;22;20180;-79
2023/11/21 04:57:30;;;;;;;7.38;5.13;;;;;;;;;;6282454;22;20540;-78
2023/11/21 04:59:59;;;;;;;5.03;3.97;;;;;;;;;;6279485;22;20255;-78
2023/11/21 05:02:27;;;;;;;7.65;4.13;;;;;;;;;;6281941;22;20183;-79
2023/11/21 05:04:56;;;;;;;5.45;4.95;;;;;;;;;;6282537;22;20684;-79
2023/11/21 05:07:23;;;;;;;8.75;5.35;;;;;;;;;;6282553;22;20201;-78
2023/11/21 05:09:51;;;;;;;7.40;4.10;;;;;;;;;;6281959;22;20567;-79
2023/11/21 05:12:18;;;;;;;13.40;3.97;;;;;;;;;;6281315;22;20207;-79
2023/11/21 05:14:46;;;;;;;7.00;4.70;;;;;;;;;;6282358;22;20233;-79
2023/11/21 05:17:15;;;;;;;5.68;3.72;;;;;;;;;;6281649;22;20192;-79
2023/11/21 05:19:42;;;;;;;6.35;5.47;;;;;;;;;;6281557;22;20226;-79
2023/11/21 05:22:12;;;;;;;6.07;3.92;;;;;;;;;;6281585;22;20191;-79
2023/11/21 05:24:39;;;;;;;4.25;3.47;;;;;;;;;;6282538;22;20168;-79
2023/11/21 05:27:09;;;;;;;5.13;4.05;;;;;;;;;;6282289;22;20201;-79
2023/11/21 05:29:37;;;;;;;5.10;4.03;;;;;;;;;;6282016;22;20173;-79
2023/11/21 05:32:06;;;;;;;4.13;3.67;;;;;;;;;;6281689;22;20192;-79
2023/11/21 05:34:34;;;;;;;5.90;3.78;;;;;;;;;;6282535;22;20204;-79
2023/11/21 05:37:02;;;;;;;4.00;3.50;;;;;;;;;;6281444;22;20605;-79
2023/11/21 05:39:29;;;;;;;5.10;4.30;;;;;;;;;;6281700;22;20200;-79
2023/11/21 05:41:57;;;;;;;5.82;3.90;;;;;;;;;;6280636;22;20195;-80
2023/11/21 05:44:25;;;;;;;4.10;3.70;;;;;;;;;;6281143;22;20251;-80
2023/11/21 05:46:52;;;;;;;5.18;3.75;;;;;;;;;;6281616;22;20179;-79
2023/11/21 05:49:21;;;;;;;5.60;4.10;;;;;;;;;;6281500;22;20477;-78
2023/11/21 05:51:50;;;;;;;5.20;3.78;;;;;;;;;;6281923;22;20196;-79
2023/11/21 05:54:17;;;;;;;4.35;3.70;;;;;;;;;;6282365;22;20279;-77
2023/11/21 05:56:45;;;;;;;4.43;4.03;;;;;;;;;;6281650;22;20226;-78
2023/11/21 05:59:12;;;;;;;3.85;3.42;;;;;;;;;;6281249;22;20176;-78
2023/11/21 06:01:40;;;;;;;8.48;4.20;;;;;;;;;;6282761;22;20192;-78
2023/11/21 06:04:08;;;;;;;8.45;4.15;;;;;;;;;;6282386;22;20255;-79
2023/11/21 06:06:35;;;;;;;7.07;5.03;;;;;;;;;;6282176;22;20172;-79
2023/11/21 06:09:05;;;;;;;5.45;4.90;;;;;;;;;;6282325;22;20228;-79
2023/11/21 06:11:33;;;;;;;6.15;4.95;;;;;;;;;;6282063;22;20260;-80
2023/11/21 06:14:00;;;;;;;8.32;5.82;;;;;;;;;;6281835;22;20230;-80
2023/11/21 06:16:27;;;;;;;6.38;5.30;;;;;;;;;;6281207;22;20200;-79
2023/11/21 06:18:55;;;;;;;9.20;5.72;;;;;;;;;;6281507;22;20267;-79
2023/11/21 06:21:22;;;;;;;8.45;5.55;;;;;;;;;;6281326;22;20629;-79
2023/11/21 06:23:50;;;;;;;7.72;5.95;;;;;;;;;;6281315;22;20207;-79
2023/11/21 06:26:20;;;;;;;5.97;5.43;;;;;;;;;;6281686;22;20202;-79
2023/11/21 06:28:47;;;;;;;10.05;6.55;;;;;;;;;;6282242;22;20262;-78
2023/11/21 06:31:15;;;;;;;4.55;4.13;;;;;;;;;;6281565;22;20192;-79
2023/11/21 06:33:42;;;;;;;5.60;4.10;;;;;;;;;;6281527;22;20204;-78
2023/11/21 06:36:12;;;;;;;8.13;5.72;;;;;;;;;;6281469;22;20176;-79
2023/11/21 06:38:39;;;;;;;4.80;4.40;;;;;;;;;;6280567;22;20196;-80
2023/11/21 06:41:08;;;;;;;6.15;5.05;;;;;;;;;;6281013;22;20260;-80
2023/11/21 06:43:37;;;;;;;8.95;5.40;;;;;;;;;;6281259;22;20255;-80
2023/11/21 06:46:04;;;;;;;4.95;4.40;;;;;;;;;;6281443;22;20216;-80
2023/11/21 06:48:32;;;;;;;4.38;3.97;;;;;;;;;;6280844;22;20619;-79
2023/11/21 06:50:59;;;;;;;5.63;4.35;;;;;;;;;;6280586;22;20256;-79
2023/11/21 06:53:27;;;;;;;4.97;3.45;;;;;;;;;;6280828;22;20263;-79
2023/11/21 06:55:54;;;;;;;2.40;2.22;;;;;;;;;;6281259;22;20263;-78
2023/11/21 06:58:21;;;;;;;4.10;3.60;;;;;;;;;;6282220;22;20218;-79
2023/11/21 07:00:52;;;;;;;3.55;3.25;;;;;;;;;;6282876;22;20228;-79
2023/11/21 07:03:19;;;;;;;3.88;3.00;;;;;;;;;;6283350;22;20179;-78
2023/11/21 07:05:47;;;;;;;4.18;3.78;;;;;;;;;;6283252;22;20184;-78
2023/11/21 07:08:14;;;;;;;2.90;2.65;;;;;;;;;;6282301;22;20292;-79
2023/11/21 07:10:42;;;;;;;3.30;2.85;;;;;;;;;;6282234;22;20550;-78
2023/11/21 07:13:12;;;;;;;3.90;3.33;;;;;;;;;;6282798;22;20227;-79
2023/11/21 07:15:39;;;;;;;4.45;4.05;;;;;;;;;;6284087;22;20706;-79
2023/11/21 07:18:08;;;;;;;8.65;5.90;;;;;;;;;;6282571;22;20592;-80
2023/11/21 07:20:36;;;;;;;5.10;4.60;;;;;;;;;;6282095;22;20255;-79
2023/11/21 07:23:05;;;;;;;5.35;4.85;;;;;;;;;;6282086;22;20182;-79
2023/11/21 07:25:33;;;;;;;5.82;4.68;;;;;;;;;;6283356;22;20176;-80
2023/11/21 07:28:00;;;;;;;3.67;3.38;;;;;;;;;;6283217;22;20240;-79
2023/11/21 07:30:28;;;;;;;4.47;3.65;;;;;;;;;;6282076;22;20200;-79
2023/11/21 07:32:55;;;;;;;3.78;3.47;;;;;;;;;;6282304;22;20275;-79
2023/11/21 07:35:24;;;;;;;5.88;3.97;;;;;;;;;;6283381;22;20255;-80
2023/11/21 07:37:52;;;;;;;4.20;3.80;;;;;;;;;;6282507;22;20759;-78
2023/11/21 07:40:19;;;;;;;4.32;3.72;;;;;;;;;;6282297;22;20176;-79
2023/11/21 07:42:46;;;;;;;4.05;3.75;;;;;;;;;;6282615;22;20251;-78
2023/11/21 07:45:15;;;;;;;3.78;3.17;;;;;;;;;;6282515;22;20177;-78
2023/11/21 07:47:42;;;;;;;4.07;3.63;;;;;;;;;;6283205;22;20242;-79
2023/11/21 07:50:11;;;;;;;3.40;3.05;;;;;;;;;;6282859;22;20677;-78
2023/11/21 07:52:40;;;;;;;5.05;3.60;;;;;;;;;;6283385;22;20193;-78
2023/11/21 07:55:08;;;;;;;3.30;3.00;;;;;;;;;;6282945;22;20196;-79
2023/11/21 07:57:36;;;;;;;3.80;3.40;;;;;;;;;;6282104;22;20258;-80
2023/11/21 08:00:06;;;;;;;4.03;3.70;;;;;;;;;;6282502;22;20179;-79
2023/11/21 08:02:34;;;;;;;4.82;3.70;;;;;;;;;;6283661;22;20219;-80
2023/11/21 08:05:01;;;;;;;6.53;5.25;;;;;;;;;;6283553;22;20505;-79
2023/11/21 08:07:29;;;;;;;4.40;3.90;;;;;;;;;;6281941;22;20224;-79
2023/11/21 08:09:58;;;;;;;2.75;2.55;;;;;;;;;;6283199;22;20180;-79
2023/11/21 08:12:27;;;;;;;4.00;3.35;;;;;;;;;;6283473;22;20602;-79
2023/11/21 08:14:55;;;;;;;3.53;3.22;;;;;;;;;;6284119;22;20513;-79
2023/11/21 08:17:23;;;;;;;4.20;3.88;;;;;;;;;;6282512;22;20275;-79
2023/11/21 08:19:51;;;;;;;6.15;4.07;;;;;;;;;;6282680;22;20176;-79
2023/11/21 08:22:18;;;;;;;4.78;3.97;;;;;;;;;;6282913;22;20184;-80
2023/11/21 08:24:46;;;;;;;3.47;3.10;;;;;;;;;;6282231;22;20186;-80
2023/11/21 08:27:15;;;;;;;4.32;3.70;;;;;;;;;;6283244;22;20195;-79
2023/11/21 08:29:43;;;;;;;4.32;3.05;;;;;;;;;;6282611;22;20203;-80
2023/11/21 08:32:10;;;;;;;4.22;3.72;;;;;;;;;;6282465;22;20228;-78
2023/11/21 08:34:39;;;;;;;4.43;3.45;;;;;;;;;;6282525;22;20211;-79
2023/11/21 08:37:07;;;;;;;4.13;3.00;;;;;;;;;;6282153;22;20179;-79
2023/11/21 08:39:34;;;;;;;6.68;5.32;;;;;;;;;;6282447;22;20272;-80
2023/11/21 08:42:02;;;;;;;6.88;4.63;;;;;;;;;;6282724;22;20232;-79
2023/11/21 08:44:31;;;;;;;5.57;5.03;;;;;;;;;;6281262;22;20184;-79
2023/11/21 08:46:59;;;;;;;5.07;4.47;;;;;;;;;;6281735;22;20176;-78
2023/11/21 08:49:27;;;;;;;7.35;5.38;;;;;;;;;;6281777;22;20207;-79
2023/11/21 08:51:55;;;;;;;4.03;3.63;;;;;;;;;;6282772;22;20597;-79
2023/11/21 08:54:23;;;;;;;3.92;3.63;;;;;;;;;;6282470;22;20203;-78
2023/11/21 08:56:50;;;;;;;6.75;4.40;;;;;;;;;;6281884;22;20255;-79
2023/11/21 08:59:17;;;;;;;5.70;4.75;;;;;;;;;;6281227;22;20255;-78
2023/11/21 09:01:46;;;;;;;6.07;4.20;;;;;;;;;;6281532;22;20864;-78
2023/11/21 09:04:14;;;;;;;4.07;3.67;;;;;;;;;;6281646;22;20172;-80
2023/11/21 09:06:41;;;;;;;4.28;3.88;;;;;;;;;;6281961;22;20204;-77
2023/11/21 09:09:10;;;;;;;7.28;5.60;;;;;;;;;;6281607;22;20267;-78
2023/11/21 09:11:37;;;;;;;7.70;5.53;;;;;;;;;;6281697;22;20181;-78
2023/11/21 09:14:05;;;;;;;8.50;6.13;;;;;;;;;;6282014;22;20534;-80
2023/11/21 09:16:34;;;;;;;6.95;5.68;;;;;;;;;;6281844;22;20251;-80
2023/11/21 09:19:05;;;;;;;6.72;5.70;;;;;;;;;;6281351;22;20247;-79
2023/11/21 09:21:33;;;;;;;4.85;3.28;;;;;;;;;;6280787;22;20597;-80
2023/11/21 09:24:00;;;;;;;4.55;4.15;;;;;;;;;;6280682;22;20503;-80
2023/11/21 09:26:27;;;;;;;3.50;3.20;;;;;;;;;;6280245;22;20264;-79
2023/11/21 09:28:56;;;;;;;5.55;4.68;;;;;;;;;;6280178;22;20196;-79
2023/11/21 09:31:24;;;;;;;4.63;4.22;;;;;;;;;;6280835;22;20176;-80
2023/11/21 09:33:51;;;;;;;3.63;3.33;;;;;;;;;;6280499;22;20202;-80
2023/11/21 09:36:22;;;;;;;4.07;3.50;;;;;;;;;;6280478;22;20251;-80
2023/11/21 09:38:50;;;;;;;3.60;3.17;;;;;;;;;;6281018;22;20196;-80
2023/11/21 09:41:24;;;;;;;3.58;3.28;;;;;;;;;;6279515;22;20176;-78
2023/11/21 09:43:56;;;;;;;5.13;3.38;;;;;;;;;;6281901;22;20680;-78
2023/11/21 09:46:25;;;;;;;3.85;3.55;;;;;;;;;;6281206;22;20244;-79
2023/11/21 09:48:53;;;;;;;5.07;4.57;;;;;;;;;;6281094;22;20196;-79
2023/11/21 09:51:23;;;;;;;4.30;3.90;;;;;;;;;;6281266;22;20183;-79
2023/11/21 09:53:53;;;;;;;4.15;3.72;;;;;;;;;;6280515;22;20216;-78
2023/11/21 09:56:23;;;;;;;4.28;3.85;;;;;;;;;;6280521;22;20172;-79
2023/11/21 09:58:53;;;;;;;3.78;3.47;;;;;;;;;;6280955;22;20192;-80
2023/11/21 10:01:21;;;;;;;4.80;4.10;;;;;;;;;;6281337;22;20623;-79
2023/11/21 10:03:49;;;;;;;5.65;4.78;;;;;;;;;;6281476;22;20172;-79
2023/11/21 10:06:17;;;;;;;5.95;5.20;;;;;;;;;;6281424;22;20625;-79
2023/11/21 10:08:47;;;;;;;7.30;6.30;;;;;;;;;;6281810;22;20248;-80
2023/11/21 10:11:16;;;;;;;8.63;6.55;;;;;;;;;;6281948;22;20176;-79
2023/11/21 10:13:45;;;;;;;6.82;5.63;;;;;;;;;;6280958;22;20690;-79
2023/11/21 10:16:16;;;;;;;5.95;5.40;;;;;;;;;;6281620;22;20179;-79
2023/11/21 10:18:45;;;;;;;5.85;4.47;;;;;;;;;;6281966;22;20193;-79
2023/11/21 10:21:13;;;;;;;5.47;4.97;;;;;;;;;;6281289;22;20172;-79
2023/11/21 10:23:43;;;;;;;4.40;4.00;;;;;;;;;;6281078;22;20258;-79
2023/11/21 10:26:16;;;;;;;4.22;3.70;;;;;;;;;;6281371;22;20176;-79
2023/11/21 10:28:56;;;;;;;5.97;5.35;;;;;;;;;;6281359;22;20299;-79
2023/11/21 10:31:24;;;;;;;5.95;4.93;;;;;;;;;;6281313;22;20157;-79
2023/11/21 10:33:52;;;;;;;4.18;3.80;;;;;;;;;;6283251;22;20581;-78
2023/11/21 10:36:27;;;;;;;4.28;3.97;;;;;;;;;;6283657;22;20176;-80
2023/11/21 10:38:57;;;;;;;7.03;6.07;;;;;;;;;;6283612;22;20199;-79
2023/11/21 10:41:25;;;;;;;6.63;4.45;;;;;;;;;;6282881;22;20180;-81
2023/11/21 10:43:56;;;;;;;6.35;4.90;;;;;;;;;;6283512;22;20224;-78
2023/11/21 10:46:25;;;;;;;5.57;5.05;;;;;;;;;;6283917;22;20592;-78
2023/11/21 10:48:56;;;;;;;5.82;5.28;;;;;;;;;;6282743;22;20272;-80
2023/11/21 10:51:24;;;;;;;5.53;5.03;;;;;;;;;;6283126;22;20468;-80
2023/11/21 10:53:54;;;;;;;4.65;4.25;;;;;;;;;;6283818;22;20200;-79
2023/11/21 10:56:26;;;;;;;5.32;4.68;;;;;;;;;;6283465;22;20176;-79
2023/11/21 10:58:54;;;;;;;5.32;3.88;;;;;;;;;;6282713;22;20271;-81
2023/11/21 11:01:23;;;;;;;5.28;4.78;;;;;;;;;;6281431;22;20176;-82
2023/11/21 11:03:54;;;;;;;4.70;4.15;;;;;;;;;;6282903;22;20177;-78
2023/11/21 11:06:22;;;;;;;3.65;3.35;;;;;;;;;;6283094;22;20187;-80
2023/11/21 11:08:50;;;;;;;5.25;4.78;;;;;;;;;;6282454;22;20227;-80
2023/11/21 11:11:18;;;;;;;4.72;4.30;;;;;;;;;;6283150;22;20732;-79
2023/11/21 11:13:47;;;;;;;4.75;4.28;;;;;;;;;;6283100;22;20215;-80
2023/11/21 11:16:17;;;;;;;4.93;4.43;;;;;;;;;;6282914;22;20488;-80
2023/11/21 11:18:47;;;;;;;6.03;5.30;;;;;;;;;;6283033;22;20196;-80
2023/11/21 11:21:27;;;;;;;5.68;5.07;;;;;;;;;;6282694;22;20176;-80
2023/11/21 11:24:14;;;;;;;6.30;5.22;;;;;;;;;;6283017;22;20214;-80
2023/11/21 11:26:50;;;;;;;4.93;3.88;;;;;;;;;;6283986;22;20157;-80
2023/11/21 11:29:28;;;;;;;11.13;6.68;;;;;;;;;;6283115;22;20160;-80
2023/11/21 11:32:09;;;;;;;8.00;6.03;;;;;;;;;;6283340;22;20220;-80
2023/11/21 11:34:41;;;;;;;4.68;3.70;;;;;;;;;;6283047;22;20187;-80
2023/11/21 11:37:09;;;;;;;5.18;3.75;;;;;;;;;;6282638;22;20283;-79
2023/11/21 11:39:38;;;;;;;4.03;3.58;;;;;;;;;;6282320;22;20251;-80
2023/11/21 11:42:08;;;;;;;3.40;3.03;;;;;;;;;;6283135;22;20181;-80
2023/11/21 11:44:56;;;;;;;3.65;3.00;;;;;;;;;;6282664;22;20400;-80
2023/11/21 11:47:27;;;;;;;3.60;2.90;;;;;;;;;;6283453;22;20695;-79
2023/11/21 11:50:07;;;;;;;4.90;4.05;;;;;;;;;;6282638;22;20163;-81
2023/11/21 11:52:40;;;;;;;9.52;8.38;;;;;;;;;;6282655;22;20160;-80
2023/11/21 11:55:13;;;;;;;17.95;14.98;;;;;;;;;;6282868;22;20187;-81
2023/11/21 11:57:42;;;;;;;9.55;7.70;;;;;;;;;;6282885;22;20816;-80
2023/11/21 12:00:20;;;;;;;7.45;6.63;;;;;;;;;;6282446;22;20203;-79
2023/11/21 12:02:49;;;;;;;6.28;5.55;;;;;;;;;;6283101;22;20161;-79
2023/11/21 12:05:19;;;;;;;5.75;5.15;;;;;;;;;;6283262;22;20546;-81
2023/11/21 12:07:53;;;;;;;7.20;6.30;;;;;;;;;;6282203;22;20304;-81
2023/11/21 12:10:22;;;;;;;7.55;6.85;;;;;;;;;;6283334;22;20554;-79
2023/11/21 12:12:52;;;;;;;6.90;6.20;;;;;;;;;;6283282;22;20670;-79
2023/11/21 12:15:21;;;;;;;6.18;5.20;;;;;;;;;;6283049;22;20199;-79
2023/11/21 12:17:50;;;;;;;6.18;5.22;;;;;;;;;;6281818;22;20192;-79
2023/11/21 12:20:20;;;;;;;5.38;4.68;;;;;;;;;;6281831;22;20215;-80
2023/11/21 12:22:49;;;;;;;5.45;4.95;;;;;;;;;;6282109;22;20207;-80
2023/11/21 12:25:18;;;;;;;6.53;5.10;;;;;;;;;;6282829;22;20228;-81
2023/11/21 12:27:46;;;;;;;5.97;5.05;;;;;;;;;;6282709;22;20695;-80
2023/11/21 12:30:15;;;;;;;6.85;5.95;;;;;;;;;;6282207;22;20207;-79
2023/11/21 12:32:46;;;;;;;11.60;8.18;;;;;;;;;;6282819;22;20177;-80
2023/11/21 12:35:14;;;;;;;6.65;5.95;;;;;;;;;;6282618;22;20506;-81
2023/11/21 12:37:43;;;;;;;6.05;5.18;;;;;;;;;;6281747;22;20200;-78
2023/11/21 12:40:14;;;;;;;6.43;5.60;;;;;;;;;;6282398;22;20203;-80
2023/11/21 12:42:43;;;;;;;5.82;5.25;;;;;;;;;;6282242;22;20243;-80
2023/11/21 12:45:20;;;;;;;5.25;4.72;;;;;;;;;;6282384;22;20207;-81
2023/11/21 12:47:51;;;;;;;6.47;5.88;;;;;;;;;;6282511;22;20292;-80
2023/11/21 12:50:23;;;;;;;5.60;5.10;;;;;;;;;;6282368;22;20632;-80
2023/11/21 12:52:53;;;;;;;6.72;5.82;;;;;;;;;;6282739;22;20553;-80
2023/11/21 12:55:22;;;;;;;6.72;6.03;;;;;;;;;;6282111;22;20845;-80
2023/11/21 12:57:54;;;;;;;7.10;6.35;;;;;;;;;;6282447;22;20669;-80
2023/11/21 13:00:29;;;;;;;6.78;6.18;;;;;;;;;;6281788;22;20616;-80
2023/11/21 13:02:59;;;;;;;6.53;5.90;;;;;;;;;;6281544;22;20214;-79
2023/11/21 13:05:33;;;;;;;6.35;5.72;;;;;;;;;;6281975;22;20240;-80
2023/11/21 13:08:03;;;;;;;6.60;5.95;;;;;;;;;;6282498;22;20227;-80
2023/11/21 13:10:35;;;;;;;6.35;5.45;;;;;;;;;;6281398;22;20160;-80
2023/11/21 13:13:05;;;;;;;6.03;5.43;;;;;;;;;;6282233;22;20159;-79
2023/11/21 13:15:34;;;;;;;7.88;6.68;;;;;;;;;;6281889;22;20199;-80
2023/11/21 13:18:03;;;;;;;7.40;6.07;;;;;;;;;;6282500;22;20242;-80
2023/11/21 13:20:32;;;;;;;9.07;8.00;;;;;;;;;;6281026;22;20256;-80
2023/11/21 13:23:01;;;;;;;7.25;6.43;;;;;;;;;;6282319;22;20641;-80
2023/11/21 13:25:31;;;;;;;8.25;7.43;;;;;;;;;;6281451;22;20172;-80
2023/11/21 13:28:00;;;;;;;9.85;8.88;;;;;;;;;;6281842;22;20254;-81
2023/11/21 13:30:33;;;;;;;9.73;8.93;;;;;;;;;;6281606;22;20176;-80
2023/11/21 13:33:04;;;;;;;5.57;5.10;;;;;;;;;;6282082;22;20157;-80
2023/11/21 13:35:34;;;;;;;4.45;4.07;;;;;;;;;;6281577;22;20501;-79
2023/11/21 13:38:07;;;;;;;4.68;4.35;;;;;;;;;;6282290;22;20192;-79
2023/11/21 13:40:42;;;;;;;3.97;3.70;;;;;;;;;;6282269;22;20180;-79
2023/11/21 13:43:10;;;;;;;3.95;3.65;;;;;;;;;;6282430;22;20589;-80
2023/11/21 13:45:39;;;;;;;3.03;2.83;;;;;;;;;;6281656;22;20175;-79
2023/11/21 13:48:10;;;;;;;4.45;4.05;;;;;;;;;;6282786;22;20227;-80
2023/11/21 13:50:38;;;;;;;5.30;4.45;;;;;;;;;;6281283;22;20196;-81
2023/11/21 13:53:10;;;;;;;3.70;3.38;;;;;;;;;;6283137;22;20204;-80
2023/11/21 13:55:39;;;;;;;3.75;3.45;;;;;;;;;;6281752;22;20180;-79
2023/11/21 13:58:09;;;;;;;4.38;4.07;;;;;;;;;;6281973;22;20224;-80
2023/11/21 14:00:41;;;;;;;3.78;3.47;;;;;;;;;;6282292;22;20184;-79
2023/11/21 14:03:17;;;;;;;3.67;3.38;;;;;;;;;;6281967;22;20651;-80
2023/11/21 14:05:47;;;;;;;5.80;5.30;;;;;;;;;;6281553;22;20159;-80
2023/11/21 14:08:16;;;;;;;7.25;6.55;;;;;;;;;;6281877;22;20299;-78
2023/11/21 14:10:49;;;;;;;7.25;6.63;;;;;;;;;;6282068;22;20203;-80
2023/11/21 14:13:17;;;;;;;6.70;5.55;;;;;;;;;;6282435;22;20157;-79
2023/11/21 14:15:50;;;;;;;6.80;6.00;;;;;;;;;;6282000;22;20192;-79
2023/11/21 14:18:27;;;;;;;7.18;6.20;;;;;;;;;;6282126;22;20193;-81
2023/11/21 14:20:54;;;;;;;8.18;6.80;;;;;;;;;;6282137;22;20239;-79
2023/11/21 14:23:23;;;;;;;4.43;3.80;;;;;;;;;;6280928;22;20211;-80
2023/11/21 14:25:50;;;;;;;6.97;6.28;;;;;;;;;;6281345;22;20175;-80
2023/11/21 14:28:18;;;;;;;6.78;5.72;;;;;;;;;;6281920;22;20196;-80
2023/11/21 14:30:46;;;;;;;7.32;6.18;;;;;;;;;;6282225;22;20326;-79
2023/11/21 14:33:16;;;;;;;8.10;7.45;;;;;;;;;;6281633;22;20219;-80
2023/11/21 14:35:46;;;;;;;7.18;6.47;;;;;;;;;;6282074;22;20176;-80
2023/11/21 14:38:14;;;;;;;8.00;7.28;;;;;;;;;;6281716;22;20543;-79
2023/11/21 14:40:42;;;;;;;6.95;6.25;;;;;;;;;;6281216;22;20231;-80
2023/11/21 14:43:09;;;;;;;5.68;5.10;;;;;;;;;;6281114;22;20203;-80
2023/11/21 14:45:36;;;;;;;5.75;4.75;;;;;;;;;;6280868;22;20199;-80
2023/11/21 14:48:15;;;;;;;5.85;5.35;;;;;;;;;;6281680;22;20247;-80
2023/11/21 14:53:42;;;;;;;4.70;4.30;;;;;;;;;;6277712;22;20176;-79
2023/11/21 14:56:10;;;;;;;5.65;5.10;;;;;;;;;;6282135;22;20176;-79